createdAt,value
2018-10-11T00:01:00.888Z,27.83
2018-10-11T00:04:07.910Z,27.90
2018-10-11T00:07:13.982Z,29.20
2018-10-11T00:10:22.258Z,25.40
2018-10-11T00:13:29.404Z,26.10
2018-10-11T00:16:36.414Z,25.13
2018-10-11T00:19:43.628Z,25.30
2018-10-11T00:22:50.849Z,23.67
2018-10-11T00:25:57.855Z,24.20
2018-10-11T00:29:05.076Z,22.47
2018-10-11T00:32:12.236Z,21.87
2018-10-11T00:35:19.496Z,21.97
2018-10-11T00:38:26.712Z,23.77
2018-10-11T00:41:33.856Z,20.83
2018-10-11T00:44:40.881Z,23.00
2018-10-11T00:47:47.961Z,24.73
2018-10-11T00:50:54.232Z,29.37
2018-10-11T00:54:01.410Z,30.63
2018-10-11T00:57:08.507Z,33.47
2018-10-11T01:00:15.713Z,34.07
2018-10-11T01:03:23.079Z,34.17
2018-10-11T01:06:30.956Z,34.53
2018-10-11T01:09:38.023Z,36.17
2018-10-11T01:12:45.300Z,34.03
2018-10-11T01:15:52.573Z,32.37
2018-10-11T01:18:59.620Z,32.17
2018-10-11T01:22:05.999Z,32.07
2018-10-11T01:25:13.171Z,30.73
2018-10-11T01:28:20.496Z,31.40
2018-10-11T01:31:28.903Z,32.43
2018-10-11T01:34:35.184Z,33.60
2018-10-11T01:37:42.436Z,31.17
2018-10-11T01:40:49.563Z,31.83
2018-10-11T01:43:56.852Z,30.57
2018-10-11T01:47:04.108Z,32.13
2018-10-11T01:50:11.334Z,40.28
2018-10-11T01:53:18.490Z,32.40
2018-10-11T01:56:25.888Z,31.77
2018-10-11T01:59:33.227Z,30.43
2018-10-11T02:02:40.614Z,30.77
2018-10-11T02:05:48.503Z,29.10
2018-10-11T02:08:55.784Z,29.53
2018-10-11T02:12:02.805Z,28.23
2018-10-11T02:15:09.930Z,30.00
2018-10-11T02:18:16.855Z,29.10
2018-10-11T02:21:24.851Z,28.10
2018-10-11T02:24:31.453Z,30.77
2018-10-11T02:27:38.511Z,29.50
2018-10-11T02:30:45.529Z,28.90
2018-10-11T02:33:52.686Z,28.53
2018-10-11T02:36:59.858Z,27.50
2018-10-11T02:40:07.052Z,28.60
2018-10-11T02:43:13.402Z,26.93
2018-10-11T02:46:20.404Z,26.33
2018-10-11T02:49:27.624Z,27.43
2018-10-11T02:52:34.836Z,26.63
2018-10-11T02:55:44.064Z,24.93
2018-10-11T02:59:03.323Z,23.13
2018-10-11T03:02:11.615Z,22.60
2018-10-11T03:05:18.728Z,25.37
2018-10-11T03:08:35.160Z,25.13
2018-10-11T03:11:42.314Z,23.03
2018-10-11T03:14:49.582Z,23.23
2018-10-11T03:17:56.903Z,22.33
2018-10-11T03:21:03.885Z,21.97
2018-10-11T03:24:11.104Z,21.77
2018-10-11T03:27:19.105Z,23.13
2018-10-11T03:30:26.391Z,23.30
2018-10-11T03:33:32.890Z,23.17
2018-10-11T03:36:40.132Z,23.73
2018-10-11T03:39:46.709Z,23.50
2018-10-11T03:42:53.945Z,24.33
2018-10-11T03:46:01.069Z,24.20
2018-10-11T03:49:08.188Z,23.67
2018-10-11T03:52:15.462Z,24.53
2018-10-11T03:55:22.569Z,22.37
2018-10-11T03:58:28.792Z,23.37
2018-10-11T04:01:35.956Z,22.43
2018-10-11T04:04:42.999Z,24.17
2018-10-11T04:07:50.192Z,20.77
2018-10-11T04:10:56.742Z,20.13
2018-10-11T04:14:04.961Z,20.73
2018-10-11T04:17:12.324Z,19.43
2018-10-11T04:20:19.410Z,20.73
2018-10-11T04:23:36.031Z,21.83
2018-10-11T04:26:43.235Z,23.47
2018-10-11T04:29:49.506Z,23.97
2018-10-11T04:32:56.712Z,24.13
2018-10-11T04:36:04.878Z,27.43
2018-10-11T04:39:11.898Z,26.27
2018-10-11T04:42:19.419Z,26.33
2018-10-11T04:45:27.239Z,23.67
2018-10-11T04:48:34.433Z,23.33
2018-10-11T04:51:41.653Z,24.50
2018-10-11T04:54:48.657Z,23.97
2018-10-11T04:57:55.772Z,23.97
2018-10-11T05:01:02.925Z,23.70
2018-10-11T05:04:10.343Z,27.07
2018-10-11T05:07:17.405Z,28.80
2018-10-11T05:10:24.477Z,32.67
2018-10-11T05:13:31.659Z,29.50
2018-10-11T05:16:38.859Z,32.33
2018-10-11T05:19:47.192Z,36.37
2018-10-11T05:22:53.554Z,26.57
2018-10-11T05:26:00.312Z,29.97
2018-10-11T05:29:06.910Z,29.87
2018-10-11T05:32:14.247Z,28.93
2018-10-11T05:35:21.206Z,29.23
2018-10-11T05:38:27.322Z,35.27
2018-10-11T05:41:34.404Z,29.10
2018-10-11T05:44:40.412Z,29.30
2018-10-11T05:47:48.629Z,26.73
2018-10-11T05:50:54.863Z,30.37
2018-10-11T05:54:03.013Z,31.83
2018-10-11T05:57:09.224Z,34.20
2018-10-11T06:00:16.474Z,35.60
2018-10-11T06:03:23.518Z,37.20
2018-10-11T06:06:30.690Z,35.23
2018-10-11T06:09:37.106Z,35.37
2018-10-11T06:12:44.098Z,30.80
2018-10-11T06:15:51.374Z,30.07
2018-10-11T06:18:58.472Z,28.73
2018-10-11T06:22:05.674Z,29.27
2018-10-11T06:25:12.807Z,30.30
2018-10-11T06:28:20.069Z,30.97
2018-10-11T06:31:27.218Z,29.20
2018-10-11T06:34:34.450Z,26.97
2018-10-11T06:37:41.562Z,27.00
2018-10-11T06:40:48.676Z,25.73
2018-10-11T06:43:55.704Z,26.57
2018-10-11T06:47:02.833Z,26.80
2018-10-11T06:50:09.700Z,25.27
2018-10-11T06:53:16.676Z,25.57
2018-10-11T06:56:23.645Z,26.23
2018-10-11T06:59:32.029Z,27.30
2018-10-11T07:02:41.473Z,26.13
2018-10-11T07:05:50.377Z,25.57
2018-10-11T07:08:58.199Z,25.13
2018-10-11T07:12:05.027Z,23.47
2018-10-11T07:15:12.138Z,19.63
2018-10-11T07:18:19.412Z,17.63
2018-10-11T07:21:26.521Z,16.00
2018-10-11T07:24:33.717Z,16.27
2018-10-11T07:27:40.797Z,20.10
2018-10-11T07:30:48.283Z,13.77
2018-10-11T07:33:55.168Z,14.83
2018-10-11T07:37:02.492Z,14.53
2018-10-11T07:40:09.835Z,17.70
2018-10-11T07:43:16.837Z,22.80
2018-10-11T07:46:23.933Z,17.47
2018-10-11T07:49:31.128Z,16.83
2018-10-11T07:52:38.265Z,15.20
2018-10-11T07:55:44.685Z,16.37
2018-10-11T07:58:51.896Z,17.53
2018-10-11T08:01:58.803Z,14.47
2018-10-11T08:05:06.017Z,16.80
2018-10-11T08:08:13.021Z,15.63
2018-10-11T08:11:20.485Z,16.67
2018-10-11T08:14:27.522Z,15.80
2018-10-11T08:17:36.031Z,16.17
2018-10-11T08:20:42.876Z,16.30
2018-10-11T08:23:51.764Z,15.23
2018-10-11T08:27:00.609Z,16.70
2018-10-11T08:30:08.545Z,17.60
2018-10-11T08:33:16.518Z,17.37
2018-10-11T08:36:22.987Z,16.27
2018-10-11T08:39:30.977Z,15.13
2018-10-11T08:42:39.134Z,23.20
2018-10-11T08:45:47.804Z,13.97
2018-10-11T08:48:55.915Z,11.60
2018-10-11T08:52:03.149Z,11.70
2018-10-11T08:55:10.441Z,11.27
2018-10-11T08:58:17.625Z,11.97
2018-10-11T09:01:24.763Z,14.33
2018-10-11T09:04:33.102Z,15.30
2018-10-11T09:07:40.170Z,15.53
2018-10-11T09:10:47.217Z,15.07
2018-10-11T09:13:55.474Z,14.43
2018-10-11T09:17:03.636Z,15.50
2018-10-11T09:20:11.738Z,14.40
2018-10-11T09:23:19.185Z,14.70
2018-10-11T09:26:26.450Z,16.27
2018-10-11T09:29:34.574Z,13.37
2018-10-11T09:32:43.179Z,13.17
2018-10-11T09:35:51.112Z,13.83
2018-10-11T09:38:58.920Z,14.57
2018-10-11T09:42:05.931Z,18.07
2018-10-11T09:45:13.112Z,14.63
2018-10-11T09:48:20.483Z,14.60
2018-10-11T09:51:26.746Z,13.80
2018-10-11T09:54:34.122Z,15.57
2018-10-11T09:57:43.378Z,13.13
2018-10-11T10:00:56.502Z,11.73
2018-10-11T10:04:03.596Z,14.10
2018-10-11T10:07:10.904Z,11.87
2018-10-11T10:10:17.984Z,6.90
2018-10-11T10:13:24.342Z,7.67
2018-10-11T10:16:32.609Z,16.67
2018-10-11T10:19:39.753Z,11.07
2018-10-11T10:22:46.640Z,11.30
2018-10-11T10:25:53.608Z,9.43
2018-10-11T10:29:00.723Z,10.80
2018-10-11T10:32:08.999Z,9.73
2018-10-11T10:35:16.127Z,10.70
2018-10-11T10:38:23.319Z,11.37
2018-10-11T10:41:30.433Z,10.23
2018-10-11T10:44:37.814Z,12.13
2018-10-11T10:47:45.263Z,9.57
2018-10-11T10:50:52.677Z,9.80
2018-10-11T10:53:59.718Z,9.57
2018-10-11T10:57:08.075Z,9.23
2018-10-11T11:00:15.019Z,9.30
2018-10-11T11:03:22.005Z,10.07
2018-10-11T11:06:29.000Z,9.70
2018-10-11T11:09:36.129Z,11.17
2018-10-11T11:12:42.563Z,10.83
2018-10-11T11:15:49.606Z,10.20
2018-10-11T11:18:56.896Z,10.43
2018-10-11T11:22:04.118Z,10.37
2018-10-11T11:25:10.972Z,10.00
2018-10-11T11:28:18.076Z,10.20
2018-10-11T11:31:25.281Z,10.00
2018-10-11T11:34:32.399Z,9.70
2018-10-11T11:37:39.620Z,13.37
2018-10-11T11:40:45.949Z,8.63
2018-10-11T11:43:52.066Z,9.33
2018-10-11T11:46:59.168Z,8.40
2018-10-11T11:50:06.232Z,9.93
2018-10-11T11:53:13.547Z,9.17
2018-10-11T11:56:20.843Z,9.10
2018-10-11T11:59:28.531Z,9.57
2018-10-11T12:02:54.138Z,10.50
2018-10-11T12:06:01.130Z,13.67
2018-10-11T12:09:08.355Z,8.50
2018-10-11T12:12:14.580Z,8.60
2018-10-11T12:15:21.696Z,8.53
2018-10-11T12:18:28.917Z,12.40
2018-10-11T12:21:35.536Z,9.50
2018-10-11T12:24:42.886Z,8.97
2018-10-11T12:27:50.956Z,9.63
2018-10-11T12:30:58.257Z,9.43
2018-10-11T12:34:05.489Z,10.77
2018-10-11T12:37:12.461Z,10.63
2018-10-11T12:40:19.631Z,15.57
2018-10-11T12:43:26.761Z,8.73
2018-10-11T12:46:36.232Z,9.17
2018-10-11T12:49:45.361Z,9.57
2018-10-11T12:52:49.147Z,9.40
2018-10-11T12:55:56.126Z,9.07
2018-10-11T12:59:03.429Z,9.00
2018-10-11T13:02:10.465Z,8.80
2018-10-11T13:05:17.657Z,9.43
2018-10-11T13:08:23.932Z,9.17
2018-10-11T13:11:31.056Z,9.23
2018-10-11T13:14:37.972Z,8.67
2018-10-11T13:17:50.152Z,10.10
2018-10-11T13:20:57.281Z,11.40
2018-10-11T13:24:03.662Z,9.20
2018-10-11T13:27:10.557Z,9.13
2018-10-11T13:30:17.736Z,8.57
2018-10-11T13:33:24.685Z,8.50
2018-10-11T13:36:32.177Z,8.30
2018-10-11T13:39:39.647Z,9.17
2018-10-11T13:42:46.511Z,8.67
2018-10-11T13:45:56.976Z,8.70
2018-10-11T13:49:00.949Z,8.90
2018-10-11T13:52:08.173Z,9.00
2018-10-11T13:55:15.799Z,7.93
2018-10-11T13:58:22.287Z,8.17
2018-10-11T14:01:29.659Z,9.03
2018-10-11T14:04:36.927Z,7.43
2018-10-11T14:07:43.056Z,7.33
2018-10-11T14:10:50.268Z,10.83
2018-10-11T14:13:57.427Z,10.63
2018-10-11T14:17:04.545Z,7.07
2018-10-11T14:20:10.978Z,7.70
2018-10-11T14:23:18.237Z,10.97
2018-10-11T14:26:25.378Z,8.10
2018-10-11T14:29:31.784Z,7.43
2018-10-11T14:32:38.295Z,7.53
2018-10-11T14:35:45.632Z,7.53
2018-10-11T14:38:52.796Z,7.33
2018-10-11T14:41:59.820Z,8.87
2018-10-11T14:45:07.108Z,15.63
2018-10-11T14:48:14.356Z,8.13
2018-10-11T14:51:22.479Z,7.70
2018-10-11T14:54:29.679Z,11.03
2018-10-11T14:57:35.936Z,12.83
2018-10-11T15:00:42.991Z,10.03
2018-10-11T15:03:49.968Z,8.80
2018-10-11T15:06:57.966Z,9.93
2018-10-11T15:10:04.997Z,8.40
2018-10-11T15:13:12.321Z,37.23
2018-10-11T15:16:19.426Z,11.67
2018-10-11T15:19:26.573Z,13.03
2018-10-11T15:22:33.732Z,10.30
2018-10-11T15:25:41.035Z,14.73
2018-10-11T15:28:48.177Z,10.70
2018-10-11T15:31:54.443Z,10.67
2018-10-11T15:35:01.780Z,10.97
2018-10-11T15:38:08.710Z,11.80
2018-10-11T15:41:15.999Z,8.07
2018-10-11T15:44:23.185Z,7.10
2018-10-11T15:47:30.200Z,22.97
2018-10-11T15:50:38.166Z,12.77
2018-10-11T15:53:45.463Z,10.80
2018-10-11T15:56:52.544Z,8.87
2018-10-11T16:00:00.642Z,7.70
2018-10-11T16:03:07.911Z,8.40
2018-10-11T16:06:15.207Z,7.00
2018-10-11T16:09:23.598Z,8.40
2018-10-11T16:12:30.734Z,9.20
2018-10-11T16:15:37.965Z,7.70
2018-10-11T16:18:44.415Z,9.13
2018-10-11T16:21:50.851Z,10.97
2018-10-11T16:24:58.056Z,16.43
2018-10-11T16:28:04.863Z,10.00
2018-10-11T16:31:11.925Z,9.83
2018-10-11T16:34:18.866Z,8.73
2018-10-11T16:37:25.826Z,7.30
2018-10-11T16:40:32.795Z,7.93
2018-10-11T16:43:39.952Z,7.77
2018-10-11T16:46:47.127Z,8.77
2018-10-11T16:49:54.561Z,13.70
2018-10-11T16:53:01.658Z,7.93
2018-10-11T16:56:08.819Z,12.73
2018-10-11T16:59:16.008Z,15.30
2018-10-11T17:02:23.157Z,10.20
2018-10-11T17:05:30.464Z,11.53
2018-10-11T17:08:37.522Z,8.77
2018-10-11T17:11:44.152Z,8.60
2018-10-11T17:14:51.417Z,7.50
2018-10-11T17:17:57.693Z,7.03
2018-10-11T17:21:04.672Z,8.40
2018-10-11T17:24:10.812Z,10.27
2018-10-11T17:27:17.935Z,8.30
2018-10-11T17:30:24.942Z,9.10
2018-10-11T17:33:31.978Z,9.23
2018-10-11T17:36:38.554Z,7.67
2018-10-11T17:39:45.610Z,7.67
2018-10-11T17:42:53.056Z,10.50
2018-10-11T17:46:00.053Z,8.10
2018-10-11T17:49:06.976Z,12.90
2018-10-11T17:52:14.401Z,13.10
2018-10-11T17:55:21.265Z,9.13
2018-10-11T17:58:28.392Z,9.70
2018-10-11T18:01:34.648Z,8.30
2018-10-11T18:04:42.024Z,10.80
2018-10-11T18:07:49.201Z,8.30
2018-10-11T18:10:55.823Z,9.13
2018-10-11T18:14:02.889Z,9.93
2018-10-11T18:17:10.184Z,11.17
2018-10-11T18:20:17.549Z,10.10
2018-10-11T18:23:24.579Z,11.50
2018-10-11T18:26:31.924Z,9.20
2018-10-11T18:29:38.970Z,10.23
2018-10-11T18:32:45.922Z,10.23
2018-10-11T18:35:53.100Z,9.50
2018-10-11T18:38:59.273Z,10.60
2018-10-11T18:42:06.184Z,9.67
2018-10-11T18:45:12.453Z,9.90
2018-10-11T18:48:18.806Z,8.70
2018-10-11T18:51:25.784Z,9.13
2018-10-11T18:54:32.896Z,8.77
2018-10-11T18:57:40.051Z,9.63
2018-10-11T19:00:48.168Z,10.73
2018-10-11T19:03:54.543Z,8.93
2018-10-11T19:07:01.708Z,9.20
2018-10-11T19:10:08.996Z,8.87
2018-10-11T19:13:17.229Z,8.70
2018-10-11T19:16:24.620Z,9.53
2018-10-11T19:19:31.999Z,9.20
2018-10-11T19:22:38.713Z,9.10
2018-10-11T19:25:45.976Z,9.90
2018-10-11T19:28:53.140Z,9.40
2018-10-11T19:32:00.239Z,10.27
2018-10-11T19:35:07.433Z,9.47
2018-10-11T19:38:13.688Z,10.17
2018-10-11T19:41:20.222Z,8.73
2018-10-11T19:44:26.734Z,9.57
2018-10-11T19:47:33.836Z,8.63
2018-10-11T19:50:41.012Z,9.23
2018-10-11T19:53:48.123Z,9.60
2018-10-11T19:56:55.462Z,9.33
2018-10-11T20:00:01.834Z,9.27
2018-10-11T20:03:08.771Z,10.30
2018-10-11T20:06:15.796Z,11.17
2018-10-11T20:09:22.974Z,11.53
2018-10-11T20:12:30.119Z,11.13
2018-10-11T20:15:37.598Z,10.67
2018-10-11T20:18:45.520Z,9.37
2018-10-11T20:21:52.863Z,9.03
2018-10-11T20:25:00.041Z,9.95
2018-10-11T20:28:07.233Z,8.23
2018-10-11T20:31:14.127Z,8.23
2018-10-11T20:34:21.315Z,9.07
2018-10-11T20:37:28.651Z,9.20
2018-10-11T20:40:35.656Z,8.60
2018-10-11T20:43:42.931Z,8.57
2018-10-11T20:46:51.026Z,8.33
2018-10-11T20:49:59.344Z,8.60
2018-10-11T20:53:06.235Z,8.53
2018-10-11T20:56:12.306Z,10.75
2018-10-11T20:59:20.621Z,8.57
2018-10-11T21:02:28.728Z,8.63
2018-10-11T21:05:37.816Z,8.13
2018-10-11T21:08:46.945Z,8.27
2018-10-11T21:11:55.047Z,7.83
2018-10-11T21:15:03.089Z,8.93
2018-10-11T21:18:10.060Z,8.40
2018-10-11T21:21:17.212Z,8.83
2018-10-11T21:24:25.220Z,8.93
2018-10-11T21:27:32.672Z,9.40
2018-10-11T21:30:39.875Z,7.63
2018-10-11T21:33:47.063Z,8.83
2018-10-11T21:36:54.139Z,8.80
2018-10-11T21:40:01.350Z,8.30
2018-10-11T21:43:08.582Z,8.37
2018-10-11T21:46:15.965Z,8.40
2018-10-11T21:49:22.940Z,7.77
2018-10-11T21:52:30.009Z,7.83
2018-10-11T21:55:37.068Z,7.87
2018-10-11T21:58:43.992Z,8.00
2018-10-11T22:01:51.698Z,6.87
2018-10-11T22:04:58.851Z,6.73
2018-10-11T22:08:07.372Z,7.70
2018-10-11T22:11:15.583Z,6.50
2018-10-11T22:14:23.990Z,6.53
2018-10-11T22:17:31.686Z,8.20
2018-10-11T22:20:40.169Z,6.13
2018-10-11T22:23:56.423Z,6.17
2018-10-11T22:27:06.457Z,6.57
2018-10-11T22:30:14.167Z,6.47
2018-10-11T22:33:21.553Z,7.43
2018-10-11T22:36:28.724Z,7.53
2018-10-11T22:39:35.302Z,7.33
2018-10-11T22:42:42.244Z,7.70
2018-10-11T22:45:49.579Z,7.30
2018-10-11T22:48:56.859Z,7.27
2018-10-11T22:52:03.946Z,8.20
2018-10-11T22:55:11.155Z,7.03
2018-10-11T22:58:18.210Z,7.07
2018-10-11T23:01:25.309Z,7.20
2018-10-11T23:04:32.111Z,7.40
2018-10-11T23:07:38.206Z,7.13
2018-10-11T23:10:44.935Z,7.47
2018-10-11T23:13:51.979Z,8.43
2018-10-11T23:16:58.949Z,8.80
2018-10-11T23:20:06.114Z,8.20
2018-10-11T23:23:13.324Z,9.03
2018-10-11T23:26:21.640Z,8.80
2018-10-11T23:29:28.755Z,9.33
2018-10-11T23:32:35.749Z,10.17
2018-10-11T23:35:43.029Z,10.77
2018-10-11T23:38:50.095Z,10.90
2018-10-11T23:41:57.278Z,10.27
2018-10-11T23:45:04.284Z,9.90
2018-10-11T23:48:11.823Z,9.20
2018-10-11T23:51:18.834Z,10.00
2018-10-11T23:54:26.064Z,9.63
2018-10-11T23:57:33.537Z,8.73
